createdAt,value
2023-05-09T00:01:31.501Z,2.15
2023-05-09T00:03:59.942Z,2.50
2023-05-09T00:06:27.785Z,2.20
2023-05-09T00:08:55.803Z,2.45
2023-05-09T00:11:23.517Z,3.17
2023-05-09T00:13:51.279Z,3.90
2023-05-09T00:16:18.818Z,3.05
2023-05-09T00:18:47.223Z,3.67
2023-05-09T00:21:14.388Z,4.15
2023-05-09T00:23:41.514Z,3.55
2023-05-09T00:26:10.259Z,4.85
2023-05-09T00:28:38.464Z,4.75
2023-05-09T00:31:05.679Z,4.43
2023-05-09T00:33:33.115Z,5.15
2023-05-09T00:36:00.339Z,5.45
2023-05-09T00:38:27.484Z,4.12
2023-05-09T00:40:54.876Z,4.85
2023-05-09T00:43:21.949Z,4.00
2023-05-09T00:45:49.567Z,3.42
2023-05-09T00:48:17.081Z,3.53
2023-05-09T00:50:44.346Z,3.30
2023-05-09T00:53:11.737Z,3.50
2023-05-09T00:55:39.974Z,3.70
2023-05-09T00:58:07.094Z,2.95
2023-05-09T01:00:34.181Z,2.60
2023-05-09T01:03:01.833Z,3.30
2023-05-09T01:05:55.966Z,2.80
2023-05-09T01:08:33.703Z,2.70
2023-05-09T01:11:11.218Z,2.67
2023-05-09T01:13:53.017Z,2.70
2023-05-09T01:16:28.723Z,2.92
2023-05-09T01:19:05.368Z,2.87
2023-05-09T01:21:33.624Z,2.67
2023-05-09T01:24:31.772Z,2.90
2023-05-09T01:27:37.056Z,2.37
2023-05-09T01:30:05.083Z,2.67
2023-05-09T01:32:35.624Z,2.97
2023-05-09T01:35:04.545Z,2.80
2023-05-09T01:37:33.997Z,2.95
2023-05-09T01:40:08.374Z,2.58
2023-05-09T01:42:48.865Z,2.90
2023-05-09T01:45:17.011Z,10.82
2023-05-09T01:47:44.929Z,7.65
2023-05-09T01:50:12.805Z,5.75
2023-05-09T01:52:41.025Z,5.60
2023-05-09T01:55:09.266Z,6.22
2023-05-09T01:57:37.530Z,4.75
2023-05-09T02:00:07.936Z,4.20
2023-05-09T02:02:40.812Z,3.90
2023-05-09T02:05:10.686Z,3.67
2023-05-09T02:07:38.871Z,3.25
2023-05-09T02:10:07.776Z,5.78
2023-05-09T02:12:38.017Z,2.60
2023-05-09T02:15:06.543Z,3.08
2023-05-09T02:17:33.807Z,2.97
2023-05-09T02:20:01.266Z,3.17
2023-05-09T02:22:29.332Z,2.60
2023-05-09T02:24:57.497Z,2.87
2023-05-09T02:27:25.448Z,2.75
2023-05-09T02:29:55.890Z,2.80
2023-05-09T02:32:27.566Z,2.60
2023-05-09T02:34:56.091Z,2.60
2023-05-09T02:37:24.589Z,2.87
2023-05-09T02:39:51.875Z,2.95
2023-05-09T02:42:25.417Z,2.70
2023-05-09T02:44:53.785Z,2.97
2023-05-09T02:47:21.887Z,2.97
2023-05-09T02:49:48.947Z,2.83
2023-05-09T02:52:16.570Z,2.85
2023-05-09T02:54:44.080Z,3.40
2023-05-09T02:57:11.216Z,3.30
2023-05-09T02:59:38.347Z,2.70
2023-05-09T03:02:05.756Z,2.90
2023-05-09T03:04:32.912Z,3.00
2023-05-09T03:07:00.213Z,20.20
2023-05-09T03:09:29.459Z,10.38
2023-05-09T03:11:56.878Z,4.40
2023-05-09T03:14:24.147Z,2.90
2023-05-09T03:16:51.758Z,3.33
2023-05-09T03:19:19.598Z,3.30
2023-05-09T03:21:46.710Z,3.78
2023-05-09T03:24:14.242Z,3.28
2023-05-09T03:26:41.422Z,4.07
2023-05-09T03:29:08.556Z,3.92
2023-05-09T03:31:36.285Z,3.37
2023-05-09T03:34:03.437Z,4.43
2023-05-09T03:36:31.868Z,3.55
2023-05-09T03:38:59.606Z,10.85
2023-05-09T03:41:26.811Z,3.70
2023-05-09T03:43:53.951Z,3.37
2023-05-09T03:46:21.344Z,4.47
2023-05-09T03:48:48.769Z,3.80
2023-05-09T03:51:16.047Z,3.37
2023-05-09T03:53:46.226Z,3.70
2023-05-09T03:56:14.671Z,7.50
2023-05-09T03:58:42.808Z,4.53
2023-05-09T04:01:11.602Z,4.22
2023-05-09T04:03:39.371Z,3.50
2023-05-09T04:06:06.952Z,3.97
2023-05-09T04:08:34.975Z,5.35
2023-05-09T04:11:02.876Z,2.65
2023-05-09T04:13:31.763Z,2.72
2023-05-09T04:15:59.353Z,3.72
2023-05-09T04:18:28.921Z,3.42
2023-05-09T04:20:56.144Z,3.53
2023-05-09T04:23:23.817Z,3.12
2023-05-09T04:25:52.124Z,3.53
2023-05-09T04:28:19.808Z,3.30
2023-05-09T04:30:47.001Z,3.00
2023-05-09T04:33:14.549Z,20.52
2023-05-09T04:35:42.539Z,21.30
2023-05-09T04:38:09.960Z,2.92
2023-05-09T04:40:37.961Z,3.12
2023-05-09T04:43:06.112Z,3.10
2023-05-09T04:45:33.318Z,3.40
2023-05-09T04:48:01.044Z,2.90
2023-05-09T04:50:29.224Z,3.58
2023-05-09T04:52:56.345Z,3.00
2023-05-09T04:55:23.796Z,2.97
2023-05-09T04:57:51.036Z,2.75
2023-05-09T05:00:19.378Z,2.92
2023-05-09T05:02:47.008Z,2.28
2023-05-09T05:05:14.503Z,3.28
2023-05-09T05:07:41.759Z,2.45
2023-05-09T05:10:10.007Z,2.50
2023-05-09T05:12:37.579Z,2.90
2023-05-09T05:15:05.611Z,2.67
2023-05-09T05:17:33.374Z,2.37
2023-05-09T05:20:01.069Z,2.33
2023-05-09T05:22:29.908Z,2.70
2023-05-09T05:24:58.406Z,1.83
2023-05-09T05:27:25.846Z,2.87
2023-05-09T05:29:53.144Z,2.80
2023-05-09T05:32:21.039Z,2.80
2023-05-09T05:34:49.336Z,2.25
2023-05-09T05:37:16.815Z,2.60
2023-05-09T05:39:44.244Z,2.40
2023-05-09T05:42:11.780Z,2.47
2023-05-09T05:44:39.371Z,2.22
2023-05-09T05:47:07.058Z,4.50
2023-05-09T05:49:34.265Z,2.60
2023-05-09T05:52:01.626Z,2.45
2023-05-09T05:54:29.730Z,2.65
2023-05-09T05:56:56.996Z,2.05
2023-05-09T05:59:24.206Z,2.12
2023-05-09T06:01:51.747Z,2.30
2023-05-09T06:04:19.143Z,2.40
2023-05-09T06:06:46.281Z,2.30
2023-05-09T06:09:13.641Z,2.47
2023-05-09T06:11:41.101Z,2.50
2023-05-09T06:14:08.304Z,2.12
2023-05-09T06:16:35.631Z,2.25
2023-05-09T06:19:03.182Z,2.55
2023-05-09T06:21:30.353Z,1.80
2023-05-09T06:24:09.859Z,2.30
2023-05-09T06:26:41.892Z,2.35
2023-05-09T06:29:09.031Z,2.17
2023-05-09T06:31:38.551Z,2.08
2023-05-09T06:34:06.488Z,2.03
2023-05-09T06:36:34.776Z,2.22
2023-05-09T06:39:02.066Z,1.85
2023-05-09T06:41:29.596Z,1.62
2023-05-09T06:43:56.812Z,1.48
2023-05-09T06:46:23.907Z,1.30
2023-05-09T06:48:51.344Z,1.67
2023-05-09T06:51:18.479Z,2.60
2023-05-09T06:53:45.565Z,1.60
2023-05-09T06:56:13.005Z,1.48
2023-05-09T06:58:40.176Z,1.83
2023-05-09T07:01:07.456Z,3.45
2023-05-09T07:03:34.916Z,1.35
2023-05-09T07:06:02.132Z,1.52
2023-05-09T07:08:29.293Z,1.58
2023-05-09T07:10:56.664Z,1.27
2023-05-09T07:13:23.847Z,2.03
2023-05-09T07:15:51.046Z,1.30
2023-05-09T07:18:18.439Z,1.70
2023-05-09T07:20:45.851Z,1.17
2023-05-09T07:23:13.001Z,1.50
2023-05-09T07:25:40.464Z,1.50
2023-05-09T07:28:07.672Z,1.30
2023-05-09T07:30:34.841Z,1.42
2023-05-09T07:33:02.274Z,1.40
2023-05-09T07:35:29.682Z,1.80
2023-05-09T07:37:56.837Z,1.87
2023-05-09T07:40:24.274Z,1.30
2023-05-09T07:42:53.474Z,1.20
2023-05-09T07:45:22.817Z,1.12
2023-05-09T07:47:51.341Z,1.37
2023-05-09T07:50:18.586Z,1.50
2023-05-09T07:52:45.741Z,1.15
2023-05-09T07:55:13.243Z,1.55
2023-05-09T07:57:40.546Z,1.20
2023-05-09T08:00:08.970Z,1.20
2023-05-09T08:02:40.676Z,1.30
2023-05-09T08:05:09.181Z,1.27
2023-05-09T08:07:36.993Z,1.17
2023-05-09T08:10:04.558Z,1.33
2023-05-09T08:12:32.355Z,1.35
2023-05-09T08:14:59.526Z,3.12
2023-05-09T08:17:26.712Z,1.35
2023-05-09T08:19:54.169Z,1.23
2023-05-09T08:22:21.439Z,1.90
2023-05-09T08:24:48.659Z,1.83
2023-05-09T08:27:16.246Z,1.05
2023-05-09T08:29:43.801Z,1.40
2023-05-09T08:32:10.992Z,1.75
2023-05-09T08:34:38.517Z,1.52
2023-05-09T08:37:05.812Z,0.90
2023-05-09T08:39:34.973Z,1.00
2023-05-09T08:42:03.280Z,0.90
2023-05-09T08:44:32.104Z,0.90
2023-05-09T08:47:00.694Z,1.00
2023-05-09T08:49:28.754Z,1.85
2023-05-09T08:51:56.841Z,1.50
2023-05-09T08:54:24.871Z,1.17
2023-05-09T08:56:52.465Z,1.08
2023-05-09T08:59:19.790Z,1.62
2023-05-09T09:01:47.623Z,1.50
2023-05-09T09:04:15.274Z,1.50
2023-05-09T09:06:42.777Z,1.05
2023-05-09T09:09:11.794Z,0.80
2023-05-09T09:11:40.585Z,1.08
2023-05-09T09:14:17.318Z,0.93
2023-05-09T09:16:46.293Z,1.00
2023-05-09T09:19:17.770Z,1.30
2023-05-09T09:21:50.994Z,1.23
2023-05-09T09:24:22.209Z,1.02
2023-05-09T09:26:51.049Z,1.00
2023-05-09T09:29:19.402Z,1.10
2023-05-09T09:31:47.436Z,0.90
2023-05-09T09:34:21.330Z,1.10
2023-05-09T09:36:48.976Z,1.25
2023-05-09T09:39:16.502Z,0.88
2023-05-09T09:41:44.939Z,0.80
2023-05-09T09:44:22.700Z,1.33
2023-05-09T09:46:55.169Z,0.80
2023-05-09T09:49:23.944Z,0.90
2023-05-09T09:51:53.061Z,0.70
2023-05-09T09:54:20.820Z,0.70
2023-05-09T09:56:49.718Z,0.80
2023-05-09T09:59:23.588Z,0.95
2023-05-09T10:02:00.046Z,0.70
2023-05-09T10:04:37.949Z,0.73
2023-05-09T10:07:07.246Z,0.75
2023-05-09T10:09:37.780Z,0.98
2023-05-09T10:12:06.786Z,0.80
2023-05-09T10:14:36.108Z,1.30
2023-05-09T10:17:05.548Z,0.95
2023-05-09T10:19:33.146Z,1.27
2023-05-09T10:22:05.657Z,1.98
2023-05-09T10:24:51.715Z,1.10
2023-05-09T10:27:22.761Z,1.50
2023-05-09T10:29:54.565Z,0.68
2023-05-09T10:32:30.204Z,1.75
2023-05-09T10:35:04.453Z,1.20
2023-05-09T10:40:03.558Z,1.33
2023-05-09T10:42:31.413Z,0.90
2023-05-09T10:44:58.670Z,1.65
2023-05-09T10:47:27.957Z,1.12
2023-05-09T10:49:55.390Z,1.10
2023-05-09T10:52:22.967Z,1.50
2023-05-09T10:55:01.907Z,1.40
2023-05-09T10:57:30.612Z,1.50
2023-05-09T10:59:59.142Z,0.90
2023-05-09T11:02:31.181Z,0.57
2023-05-09T11:05:16.265Z,0.93
2023-05-09T11:07:43.946Z,1.55
2023-05-09T11:10:18.433Z,2.10
2023-05-09T11:12:57.958Z,0.80
2023-05-09T11:15:27.817Z,0.80
2023-05-09T11:18:09.716Z,2.97
2023-05-09T11:20:43.704Z,1.12
2023-05-09T11:23:11.952Z,1.10
2023-05-09T11:25:39.866Z,0.73
2023-05-09T11:28:06.954Z,0.93
2023-05-09T11:30:42.622Z,1.00
2023-05-09T11:33:28.512Z,1.40
2023-05-09T11:36:40.845Z,1.08
2023-05-09T11:39:09.757Z,1.10
2023-05-09T11:41:43.460Z,1.23
2023-05-09T11:44:21.175Z,1.25
2023-05-09T11:46:49.345Z,1.05
2023-05-09T11:49:17.716Z,1.15
2023-05-09T11:51:44.939Z,0.90
2023-05-09T11:54:13.640Z,1.25
2023-05-09T11:56:42.081Z,1.20
2023-05-09T11:59:10.535Z,1.00
2023-05-09T12:01:37.795Z,0.95
2023-05-09T12:04:07.891Z,1.08
2023-05-09T12:06:35.125Z,0.90
2023-05-09T12:09:02.388Z,0.90
2023-05-09T12:11:32.304Z,1.00
2023-05-09T12:13:59.592Z,1.20
2023-05-09T12:16:26.848Z,1.02
2023-05-09T12:18:54.804Z,0.90
2023-05-09T12:21:22.187Z,1.30
2023-05-09T12:23:51.831Z,1.37
2023-05-09T12:26:23.740Z,2.17
2023-05-09T12:28:51.018Z,1.15
2023-05-09T12:31:18.568Z,1.20
2023-05-09T12:33:46.092Z,0.82
2023-05-09T12:36:13.694Z,1.33
2023-05-09T12:38:40.939Z,1.00
2023-05-09T12:41:18.901Z,0.98
2023-05-09T12:43:56.915Z,1.10
2023-05-09T12:46:24.496Z,1.23
2023-05-09T12:48:51.773Z,0.85
2023-05-09T12:51:22.688Z,2.78
2023-05-09T12:53:50.140Z,1.10
2023-05-09T12:56:18.988Z,1.10
2023-05-09T12:58:51.205Z,1.20
2023-05-09T13:01:19.840Z,1.10
2023-05-09T13:04:03.618Z,0.93
2023-05-09T13:06:31.377Z,0.82
2023-05-09T13:09:02.920Z,1.42
2023-05-09T13:11:30.617Z,0.93
2023-05-09T13:13:58.116Z,0.90
2023-05-09T13:16:25.390Z,1.02
2023-05-09T13:18:52.856Z,1.20
2023-05-09T13:21:20.218Z,1.00
2023-05-09T13:23:49.397Z,0.98
2023-05-09T13:26:16.972Z,1.20
2023-05-09T13:28:44.093Z,1.05
2023-05-09T13:31:11.263Z,1.37
2023-05-09T13:33:38.777Z,0.95
2023-05-09T13:36:07.155Z,0.77
2023-05-09T13:38:40.546Z,1.10
2023-05-09T13:41:08.571Z,1.10
2023-05-09T13:43:36.956Z,0.93
2023-05-09T13:46:04.141Z,0.73
2023-05-09T13:48:31.585Z,0.80
2023-05-09T13:50:59.961Z,1.33
2023-05-09T13:53:27.370Z,0.95
2023-05-09T13:55:54.777Z,0.80
2023-05-09T13:58:21.857Z,1.05
2023-05-09T14:00:48.967Z,1.20
2023-05-09T14:03:16.659Z,0.85
2023-05-09T14:05:43.753Z,1.10
2023-05-09T14:08:11.107Z,1.10
2023-05-09T14:10:38.561Z,0.90
2023-05-09T14:13:08.362Z,1.05
2023-05-09T14:15:35.875Z,1.00
2023-05-09T14:18:03.874Z,0.80
2023-05-09T14:20:31.072Z,0.98
2023-05-09T14:23:00.696Z,1.40
2023-05-09T14:25:28.232Z,1.17
2023-05-09T14:27:55.379Z,1.90
2023-05-09T14:30:22.992Z,0.93
2023-05-09T14:32:50.831Z,0.85
2023-05-09T14:35:18.507Z,0.95
2023-05-09T14:37:45.838Z,0.90
2023-05-09T14:40:13.518Z,1.12
2023-05-09T14:42:41.174Z,0.80
2023-05-09T14:45:11.963Z,1.10
2023-05-09T14:47:39.401Z,0.98
2023-05-09T14:50:10.030Z,1.10
2023-05-09T14:52:37.191Z,0.90
2023-05-09T14:55:06.171Z,1.52
2023-05-09T14:57:33.772Z,1.10
2023-05-09T15:00:12.575Z,0.93
2023-05-09T15:02:47.577Z,5.97
2023-05-09T15:05:15.135Z,1.10
2023-05-09T15:07:42.345Z,1.10
2023-05-09T15:10:10.375Z,0.90
2023-05-09T15:12:37.678Z,1.70
2023-05-09T15:15:14.094Z,0.70
2023-05-09T15:17:42.366Z,0.90
2023-05-09T15:20:10.204Z,1.10
2023-05-09T15:22:37.853Z,1.00
2023-05-09T15:25:06.342Z,0.80
2023-05-09T15:27:33.639Z,0.90
2023-05-09T15:30:00.930Z,1.15
2023-05-09T15:32:28.478Z,1.10
2023-05-09T15:34:55.676Z,1.25
2023-05-09T15:37:22.884Z,0.85
2023-05-09T15:39:50.634Z,0.80
2023-05-09T15:42:19.087Z,1.30
2023-05-09T15:44:49.340Z,1.00
2023-05-09T15:47:17.113Z,0.77
2023-05-09T15:49:44.290Z,0.80
2023-05-09T15:52:11.598Z,0.73
2023-05-09T15:54:40.030Z,0.70
2023-05-09T15:57:08.116Z,5.47
2023-05-09T15:59:35.611Z,0.98
2023-05-09T16:02:03.211Z,1.45
2023-05-09T16:04:30.869Z,1.00
2023-05-09T16:06:58.079Z,1.55
2023-05-09T16:09:25.525Z,2.47
2023-05-09T16:11:52.984Z,0.90
2023-05-09T16:14:20.225Z,0.80
2023-05-09T16:16:49.941Z,1.37
2023-05-09T16:19:17.409Z,0.90
2023-05-09T16:21:47.484Z,2.28
2023-05-09T16:24:14.718Z,1.42
2023-05-09T16:26:42.225Z,1.73
2023-05-09T16:29:09.885Z,0.70
2023-05-09T16:31:37.081Z,1.25
2023-05-09T16:34:04.557Z,0.85
2023-05-09T16:36:33.461Z,0.88
2023-05-09T16:39:00.672Z,0.80
2023-05-09T16:41:28.031Z,1.08
2023-05-09T16:43:55.162Z,0.85
2023-05-09T16:46:22.420Z,0.73
2023-05-09T16:48:52.856Z,1.20
2023-05-09T16:51:19.934Z,1.55
2023-05-09T16:53:47.057Z,26.10
2023-05-09T16:56:14.450Z,2.15
2023-05-09T16:58:43.139Z,2.90
2023-05-09T17:01:10.242Z,1.20
2023-05-09T17:03:37.688Z,1.02
2023-05-09T17:06:04.958Z,5.82
2023-05-09T17:08:32.064Z,1.40
2023-05-09T17:10:59.393Z,0.90
2023-05-09T17:13:27.106Z,0.90
2023-05-09T17:15:54.297Z,1.60
2023-05-09T17:18:33.278Z,2.97
2023-05-09T17:21:04.660Z,3.60
2023-05-09T17:23:32.515Z,1.50
2023-05-09T17:25:59.772Z,1.98
2023-05-09T17:28:27.126Z,1.35
2023-05-09T17:30:54.713Z,1.30
2023-05-09T17:33:21.837Z,1.10
2023-05-09T17:35:50.013Z,2.47
2023-05-09T17:38:17.527Z,1.10
2023-05-09T17:40:44.949Z,1.30
2023-05-09T17:43:13.328Z,1.33
2023-05-09T17:45:40.748Z,2.70
2023-05-09T17:48:08.092Z,4.37
2023-05-09T17:50:35.354Z,12.98
2023-05-09T17:53:02.920Z,11.65
2023-05-09T17:55:31.541Z,11.00
2023-05-09T17:57:58.682Z,12.68
2023-05-09T18:00:26.147Z,8.95
2023-05-09T18:02:53.332Z,9.20
2023-05-09T18:05:20.940Z,19.92
2023-05-09T18:07:48.086Z,8.05
2023-05-09T18:10:15.513Z,8.07
2023-05-09T18:12:45.135Z,6.87
2023-05-09T18:15:14.051Z,9.93
2023-05-09T18:17:41.359Z,9.95
2023-05-09T18:20:09.287Z,8.43
2023-05-09T18:22:39.704Z,10.07
2023-05-09T18:25:07.426Z,8.40
2023-05-09T18:27:34.968Z,7.82
2023-05-09T18:30:02.322Z,7.95
2023-05-09T18:32:30.020Z,6.35
2023-05-09T18:34:57.497Z,5.32
2023-05-09T18:37:24.843Z,6.05
2023-05-09T18:39:53.818Z,6.22
2023-05-09T18:42:21.406Z,8.88
2023-05-09T18:44:49.227Z,10.77
2023-05-09T18:47:16.840Z,11.35
2023-05-09T18:49:44.349Z,6.30
2023-05-09T18:52:12.850Z,3.97
2023-05-09T18:54:41.224Z,9.18
2023-05-09T18:57:08.714Z,11.18
2023-05-09T18:59:35.867Z,9.25
2023-05-09T19:02:05.278Z,7.18
2023-05-09T19:04:33.000Z,6.57
2023-05-09T19:07:00.345Z,8.35
2023-05-09T19:09:27.586Z,5.00
2023-05-09T19:11:55.133Z,6.12
2023-05-09T19:14:22.851Z,4.93
2023-05-09T19:16:50.041Z,5.50
2023-05-09T19:19:17.553Z,4.47
2023-05-09T19:21:44.822Z,4.95
2023-05-09T19:24:14.061Z,6.78
2023-05-09T19:26:41.526Z,6.00
2023-05-09T19:29:09.180Z,6.20
2023-05-09T19:31:37.438Z,3.85
2023-05-09T19:34:05.043Z,10.55
2023-05-09T19:36:32.140Z,4.95
2023-05-09T19:38:59.268Z,4.05
2023-05-09T19:41:26.748Z,3.10
2023-05-09T19:43:54.298Z,3.00
2023-05-09T19:46:22.835Z,2.17
2023-05-09T19:48:50.706Z,4.10
2023-05-09T19:51:18.158Z,11.55
2023-05-09T19:53:46.805Z,9.40
2023-05-09T19:56:14.398Z,10.15
2023-05-09T19:58:41.598Z,13.70
2023-05-09T20:01:09.072Z,10.82
2023-05-09T20:03:37.085Z,7.37
2023-05-09T20:06:04.618Z,8.90
2023-05-09T20:08:31.874Z,6.65
2023-05-09T20:11:00.143Z,6.60
2023-05-09T20:13:27.812Z,3.67
2023-05-09T20:15:55.219Z,3.87
2023-05-09T20:18:22.698Z,5.32
2023-05-09T20:20:49.927Z,6.85
2023-05-09T20:23:17.160Z,8.13
2023-05-09T20:25:44.639Z,5.22
2023-05-09T20:28:12.344Z,4.20
2023-05-09T20:30:39.831Z,3.62
2023-05-09T20:33:07.768Z,4.30
2023-05-09T20:35:35.033Z,7.55
2023-05-09T20:38:03.561Z,12.82
2023-05-09T20:40:31.182Z,17.48
2023-05-09T20:42:58.503Z,9.07
2023-05-09T20:45:26.042Z,6.28
2023-05-09T20:47:53.548Z,5.87
2023-05-09T20:50:20.743Z,5.80
2023-05-09T20:52:48.775Z,8.15
2023-05-09T20:55:16.263Z,9.63
2023-05-09T20:57:43.393Z,4.85
2023-05-09T21:00:11.012Z,4.65
2023-05-09T21:02:38.557Z,4.28
2023-05-09T21:05:06.277Z,2.90
2023-05-09T21:07:33.422Z,2.75
2023-05-09T21:10:00.882Z,3.12
2023-05-09T21:12:28.264Z,2.30
2023-05-09T21:14:56.354Z,3.15
2023-05-09T21:17:23.807Z,2.20
2023-05-09T21:19:51.850Z,2.72
2023-05-09T21:22:18.976Z,2.72
2023-05-09T21:24:46.477Z,2.45
2023-05-09T21:27:14.279Z,2.20
2023-05-09T21:29:41.434Z,2.33
2023-05-09T21:32:08.873Z,1.95
2023-05-09T21:34:36.041Z,2.37
2023-05-09T21:37:03.230Z,2.45
2023-05-09T21:39:32.477Z,2.15
2023-05-09T21:42:00.591Z,2.62
2023-05-09T21:44:27.784Z,1.87
2023-05-09T21:46:55.307Z,2.40
2023-05-09T21:49:22.540Z,2.05
2023-05-09T21:51:49.719Z,2.15
2023-05-09T21:54:17.161Z,2.20
2023-05-09T21:56:44.316Z,2.12
2023-05-09T21:59:11.542Z,2.28
2023-05-09T22:01:39.111Z,2.40
2023-05-09T22:04:07.375Z,2.62
2023-05-09T22:06:34.601Z,2.22
2023-05-09T22:09:01.843Z,2.47
2023-05-09T22:11:29.349Z,2.62
2023-05-09T22:13:56.506Z,1.80
2023-05-09T22:16:23.727Z,1.90
2023-05-09T22:18:51.370Z,1.92
2023-05-09T22:21:18.514Z,2.22
2023-05-09T22:23:45.698Z,1.85
2023-05-09T22:26:13.164Z,1.87
2023-05-09T22:28:40.387Z,2.03
2023-05-09T22:31:07.765Z,2.05
2023-05-09T22:33:35.241Z,2.28
2023-05-09T22:36:02.477Z,2.25
2023-05-09T22:38:29.658Z,1.87
2023-05-09T22:40:57.176Z,2.15
2023-05-09T22:43:28.723Z,1.98
2023-05-09T22:46:01.312Z,1.75
2023-05-09T22:48:28.529Z,1.98
2023-05-09T22:50:55.713Z,1.60
2023-05-09T22:53:23.125Z,1.85
2023-05-09T22:55:51.339Z,2.17
2023-05-09T22:58:18.694Z,2.00
2023-05-09T23:00:46.148Z,2.22
2023-05-09T23:03:13.510Z,2.12
2023-05-09T23:05:41.514Z,2.20
2023-05-09T23:08:09.443Z,2.55
2023-05-09T23:10:36.645Z,2.90
2023-05-09T23:13:04.817Z,2.42
2023-05-09T23:15:32.676Z,2.58
2023-05-09T23:18:00.056Z,2.85
2023-05-09T23:20:27.288Z,2.58
2023-05-09T23:22:54.780Z,2.58
2023-05-09T23:25:21.986Z,3.12
2023-05-09T23:27:49.379Z,2.78
2023-05-09T23:30:17.100Z,2.50
2023-05-09T23:32:44.596Z,1.80
2023-05-09T23:35:11.894Z,2.60
2023-05-09T23:37:39.337Z,2.17
2023-05-09T23:40:07.180Z,2.12
2023-05-09T23:42:34.594Z,2.60
2023-05-09T23:45:02.856Z,2.33
2023-05-09T23:47:30.602Z,2.10
2023-05-09T23:49:58.121Z,1.90
2023-05-09T23:52:25.929Z,2.00
2023-05-09T23:54:53.125Z,2.25
2023-05-09T23:57:20.312Z,2.10
2023-05-09T23:59:47.917Z,2.22
